createdAt,value
2022-11-18T00:02:38.527Z,21.90
2022-11-18T00:17:42.138Z,16.70
2022-11-18T00:32:45.564Z,12.20
2022-11-18T00:47:49.175Z,10.80
2022-11-18T01:02:52.615Z,8.60
2022-11-18T01:17:56.075Z,97.80
2022-11-18T01:32:59.305Z,11.00
2022-11-18T01:48:07.714Z,12.30
2022-11-18T02:03:11.501Z,7.90
2022-11-18T02:18:24.047Z,6.90
2022-11-18T02:33:39.345Z,7.10
2022-11-18T02:48:50.340Z,6.80
2022-11-18T03:03:54.075Z,8.70
2022-11-18T03:19:10.154Z,11.60
2022-11-18T03:34:26.119Z,7.10
2022-11-18T03:49:35.155Z,10.10
2022-11-18T04:04:39.152Z,15.30
2022-11-18T04:19:42.736Z,11.40
2022-11-18T04:34:45.899Z,12.70
2022-11-18T04:49:49.136Z,12.50
2022-11-18T05:04:52.538Z,25.10
2022-11-18T05:19:55.910Z,13.10
2022-11-18T05:34:59.098Z,52.60
2022-11-18T05:50:02.541Z,19.80
2022-11-18T06:05:06.613Z,57.80
2022-11-18T06:20:10.771Z,18.90
2022-11-18T06:35:14.292Z,17.50
2022-11-18T06:50:18.332Z,27.50
2022-11-18T07:05:21.959Z,22.50
2022-11-18T07:20:25.154Z,8.80
2022-11-18T07:35:28.860Z,11.40
2022-11-18T07:50:32.655Z,30.70
2022-11-18T08:05:36.228Z,73.30
2022-11-18T08:20:39.451Z,47.70
2022-11-18T08:35:42.650Z,28.60
2022-11-18T08:50:46.073Z,20.90
2022-11-18T09:05:49.795Z,12.70
2022-11-18T09:20:57.994Z,12.00
2022-11-18T09:36:02.325Z,13.60
2022-11-18T09:51:06.486Z,17.50
2022-11-18T10:06:10.737Z,12.90
2022-11-18T10:21:37.732Z,15.30
2022-11-18T10:36:41.582Z,25.30
2022-11-18T10:51:47.474Z,16.20
2022-11-18T11:06:51.240Z,35.90
2022-11-18T11:21:55.246Z,30.30
2022-11-18T11:37:15.227Z,30.90
2022-11-18T11:52:32.352Z,42.90
2022-11-18T12:07:52.110Z,36.20
2022-11-18T12:23:16.222Z,17.00
2022-11-18T12:38:32.815Z,66.20
2022-11-18T12:53:45.251Z,60.90
2022-11-18T13:08:56.360Z,54.70
2022-11-18T13:24:01.231Z,51.90
2022-11-18T13:39:07.140Z,51.60
2022-11-18T13:54:15.847Z,34.20
2022-11-18T14:09:27.674Z,43.10
2022-11-18T14:24:31.325Z,35.10
2022-11-18T14:39:37.801Z,36.60
2022-11-18T14:54:41.444Z,46.60
2022-11-18T15:09:45.494Z,76.20
2022-11-18T15:24:48.943Z,49.60
2022-11-18T15:39:52.141Z,54.40
2022-11-18T15:54:56.050Z,106.60
2022-11-18T16:10:18.015Z,44.50
2022-11-18T16:25:21.416Z,129.30
2022-11-18T16:40:24.640Z,155.40
2022-11-18T16:55:28.224Z,73.50
2022-11-18T17:10:31.969Z,196.80
2022-11-18T17:25:35.789Z,68.30
2022-11-18T17:40:39.340Z,254.80
2022-11-18T17:55:43.645Z,122.90
2022-11-18T18:10:46.841Z,213.60
2022-11-18T18:25:50.120Z,200.00
2022-11-18T18:40:54.722Z,232.30
2022-11-18T18:55:59.244Z,265.90
2022-11-18T19:11:06.356Z,268.40
2022-11-18T19:26:10.229Z,399.50
2022-11-18T19:41:14.114Z,186.10
2022-11-18T19:56:20.693Z,173.10
2022-11-18T20:11:24.921Z,230.80
2022-11-18T20:26:37.329Z,319.30
2022-11-18T20:41:40.902Z,172.90
2022-11-18T20:56:44.675Z,98.30
2022-11-18T21:11:48.362Z,125.40
2022-11-18T21:26:55.085Z,122.30
2022-11-18T21:41:58.703Z,187.40
2022-11-18T21:57:02.348Z,114.00
2022-11-18T22:12:06.938Z,241.10
2022-11-18T22:27:11.676Z,135.30
2022-11-18T22:42:34.184Z,112.30
2022-11-18T22:57:37.811Z,184.50
2022-11-18T23:13:00.166Z,177.40
2022-11-18T23:28:03.343Z,313.70
2022-11-18T23:43:06.880Z,155.60
2022-11-18T23:58:10.336Z,52.70
